sensor_id;sensor_type;location;lat;lon;timestamp;P1;durP1;ratioP1;P2;durP2;ratioP2
13927;SDS011;7036;50.834;4.718;2022-11-02T00:02:19;5.68;;;1.63;;
13927;SDS011;7036;50.834;4.718;2022-11-02T00:04:47;3.30;;;1.70;;
13927;SDS011;7036;50.834;4.718;2022-11-02T00:07:14;3.30;;;1.70;;
13927;SDS011;7036;50.834;4.718;2022-11-02T00:09:42;3.05;;;1.70;;
13927;SDS011;7036;50.834;4.718;2022-11-02T00:12:10;2.00;;;1.38;;
13927;SDS011;7036;50.834;4.718;2022-11-02T00:14:38;3.13;;;1.30;;
13927;SDS011;7036;50.834;4.718;2022-11-02T00:17:06;3.00;;;1.70;;
13927;SDS011;7036;50.834;4.718;2022-11-02T00:19:34;4.82;;;1.83;;
13927;SDS011;7036;50.834;4.718;2022-11-02T00:22:02;3.13;;;1.63;;
13927;SDS011;7036;50.834;4.718;2022-11-02T00:24:30;3.25;;;1.48;;
13927;SDS011;7036;50.834;4.718;2022-11-02T00:26:57;2.65;;;1.50;;
13927;SDS011;7036;50.834;4.718;2022-11-02T00:29:24;2.55;;;1.60;;
13927;SDS011;7036;50.834;4.718;2022-11-02T00:31:51;2.58;;;1.15;;
13927;SDS011;7036;50.834;4.718;2022-11-02T00:34:18;2.15;;;1.80;;
13927;SDS011;7036;50.834;4.718;2022-11-02T00:36:47;2.88;;;1.58;;
13927;SDS011;7036;50.834;4.718;2022-11-02T00:39:15;2.03;;;1.40;;
13927;SDS011;7036;50.834;4.718;2022-11-02T00:41:42;3.50;;;1.70;;
13927;SDS011;7036;50.834;4.718;2022-11-02T00:44:11;5.72;;;1.80;;
13927;SDS011;7036;50.834;4.718;2022-11-02T00:46:38;4.20;;;1.67;;
13927;SDS011;7036;50.834;4.718;2022-11-02T00:49:05;3.55;;;1.40;;
13927;SDS011;7036;50.834;4.718;2022-11-02T00:51:33;4.78;;;1.65;;
13927;SDS011;7036;50.834;4.718;2022-11-02T00:54:01;3.58;;;1.70;;
13927;SDS011;7036;50.834;4.718;2022-11-02T00:56:29;2.03;;;1.30;;
13927;SDS011;7036;50.834;4.718;2022-11-02T00:58:57;3.78;;;2.00;;
13927;SDS011;7036;50.834;4.718;2022-11-02T01:01:26;4.80;;;1.77;;
13927;SDS011;7036;50.834;4.718;2022-11-02T01:03:54;3.20;;;1.50;;
13927;SDS011;7036;50.834;4.718;2022-11-02T01:06:20;4.60;;;1.40;;
13927;SDS011;7036;50.834;4.718;2022-11-02T01:08:48;1.75;;;1.25;;
13927;SDS011;7036;50.834;4.718;2022-11-02T01:11:16;4.85;;;1.50;;
13927;SDS011;7036;50.834;4.718;2022-11-02T01:13:42;2.53;;;1.50;;
13927;SDS011;7036;50.834;4.718;2022-11-02T01:16:10;2.75;;;1.30;;
13927;SDS011;7036;50.834;4.718;2022-11-02T01:18:38;2.88;;;1.52;;
13927;SDS011;7036;50.834;4.718;2022-11-02T01:21:06;2.75;;;1.63;;
13927;SDS011;7036;50.834;4.718;2022-11-02T01:23:34;2.20;;;1.45;;
13927;SDS011;7036;50.834;4.718;2022-11-02T01:26:05;5.70;;;1.42;;
13927;SDS011;7036;50.834;4.718;2022-11-02T01:28:32;2.17;;;1.30;;
13927;SDS011;7036;50.834;4.718;2022-11-02T01:30:59;2.60;;;1.30;;
13927;SDS011;7036;50.834;4.718;2022-11-02T01:33:27;1.90;;;1.42;;
13927;SDS011;7036;50.834;4.718;2022-11-02T01:35:54;3.70;;;1.63;;
13927;SDS011;7036;50.834;4.718;2022-11-02T01:38:21;4.55;;;1.50;;
13927;SDS011;7036;50.834;4.718;2022-11-02T01:40:49;1.95;;;1.17;;
13927;SDS011;7036;50.834;4.718;2022-11-02T01:45:53;5.67;;;1.43;;
13927;SDS011;7036;50.834;4.718;2022-11-02T01:48:20;2.50;;;1.57;;
13927;SDS011;7036;50.834;4.718;2022-11-02T01:50:47;1.80;;;1.10;;
13927;SDS011;7036;50.834;4.718;2022-11-02T01:53:15;2.13;;;1.10;;
13927;SDS011;7036;50.834;4.718;2022-11-02T01:55:43;3.58;;;1.17;;
13927;SDS011;7036;50.834;4.718;2022-11-02T01:58:11;1.63;;;1.20;;
13927;SDS011;7036;50.834;4.718;2022-11-02T02:00:38;1.65;;;1.20;;
13927;SDS011;7036;50.834;4.718;2022-11-02T02:03:07;1.75;;;1.00;;
13927;SDS011;7036;50.834;4.718;2022-11-02T02:05:43;2.70;;;1.37;;
13927;SDS011;7036;50.834;4.718;2022-11-02T02:08:08;3.10;;;1.30;;
13927;SDS011;7036;50.834;4.718;2022-11-02T02:10:36;2.03;;;1.23;;
13927;SDS011;7036;50.834;4.718;2022-11-02T02:13:03;2.30;;;1.42;;
13927;SDS011;7036;50.834;4.718;2022-11-02T02:16:14;2.58;;;1.23;;
13927;SDS011;7036;50.834;4.718;2022-11-02T02:18:15;2.10;;;1.37;;
13927;SDS011;7036;50.834;4.718;2022-11-02T02:20:50;2.10;;;1.35;;
13927;SDS011;7036;50.834;4.718;2022-11-02T02:23:13;4.60;;;1.53;;
13927;SDS011;7036;50.834;4.718;2022-11-02T02:33:51;2.73;;;1.37;;
13927;SDS011;7036;50.834;4.718;2022-11-02T02:36:25;2.00;;;1.20;;
13927;SDS011;7036;50.834;4.718;2022-11-02T02:38:48;1.00;;;0.90;;
13927;SDS011;7036;50.834;4.718;2022-11-02T02:43:53;3.77;;;1.40;;
13927;SDS011;7036;50.834;4.718;2022-11-02T02:46:19;4.40;;;1.25;;
13927;SDS011;7036;50.834;4.718;2022-11-02T02:48:51;3.07;;;1.37;;
13927;SDS011;7036;50.834;4.718;2022-11-02T02:51:37;3.20;;;1.42;;
13927;SDS011;7036;50.834;4.718;2022-11-02T02:54:04;2.60;;;1.30;;
13927;SDS011;7036;50.834;4.718;2022-11-02T02:56:30;4.00;;;1.47;;
13927;SDS011;7036;50.834;4.718;2022-11-02T02:59:05;3.58;;;1.70;;
13927;SDS011;7036;50.834;4.718;2022-11-02T03:01:31;2.53;;;1.53;;
13927;SDS011;7036;50.834;4.718;2022-11-02T03:03:59;3.85;;;1.40;;
13927;SDS011;7036;50.834;4.718;2022-11-02T03:06:31;2.40;;;1.50;;
13927;SDS011;7036;50.834;4.718;2022-11-02T03:09:02;3.40;;;1.20;;
13927;SDS011;7036;50.834;4.718;2022-11-02T03:14:26;3.03;;;1.23;;
13927;SDS011;7036;50.834;4.718;2022-11-02T03:19:48;4.37;;;1.70;;
13927;SDS011;7036;50.834;4.718;2022-11-02T03:22:40;2.97;;;1.73;;
13927;SDS011;7036;50.834;4.718;2022-11-02T03:25:16;2.77;;;1.30;;
13927;SDS011;7036;50.834;4.718;2022-11-02T03:27:56;4.30;;;1.52;;
13927;SDS011;7036;50.834;4.718;2022-11-02T03:30:30;3.40;;;1.60;;
13927;SDS011;7036;50.834;4.718;2022-11-02T03:35:35;3.20;;;1.63;;
13927;SDS011;7036;50.834;4.718;2022-11-02T03:38:17;2.00;;;1.20;;
13927;SDS011;7036;50.834;4.718;2022-11-02T03:40:46;1.83;;;1.20;;
13927;SDS011;7036;50.834;4.718;2022-11-02T03:43:13;2.87;;;1.20;;
13927;SDS011;7036;50.834;4.718;2022-11-02T03:45:48;4.22;;;1.30;;
13927;SDS011;7036;50.834;4.718;2022-11-02T03:48:13;2.87;;;1.30;;
13927;SDS011;7036;50.834;4.718;2022-11-02T03:50:42;2.28;;;1.48;;
13927;SDS011;7036;50.834;4.718;2022-11-02T03:53:11;2.92;;;1.50;;
13927;SDS011;7036;50.834;4.718;2022-11-02T03:55:38;2.97;;;1.77;;
13927;SDS011;7036;50.834;4.718;2022-11-02T03:58:08;3.20;;;1.77;;
13927;SDS011;7036;50.834;4.718;2022-11-02T04:00:34;3.40;;;1.48;;
13927;SDS011;7036;50.834;4.718;2022-11-02T04:03:02;3.53;;;1.48;;
13927;SDS011;7036;50.834;4.718;2022-11-02T04:05:31;3.15;;;1.30;;
13927;SDS011;7036;50.834;4.718;2022-11-02T04:07:57;2.60;;;1.35;;
13927;SDS011;7036;50.834;4.718;2022-11-02T04:10:42;3.00;;;1.43;;
13927;SDS011;7036;50.834;4.718;2022-11-02T04:13:27;2.97;;;1.10;;
13927;SDS011;7036;50.834;4.718;2022-11-02T04:16:12;2.43;;;1.53;;
13927;SDS011;7036;50.834;4.718;2022-11-02T04:18:40;2.40;;;1.23;;
13927;SDS011;7036;50.834;4.718;2022-11-02T04:21:25;2.97;;;1.30;;
13927;SDS011;7036;50.834;4.718;2022-11-02T04:23:53;3.95;;;1.58;;
13927;SDS011;7036;50.834;4.718;2022-11-02T04:26:37;3.53;;;1.50;;
13927;SDS011;7036;50.834;4.718;2022-11-02T04:29:05;3.60;;;1.65;;
13927;SDS011;7036;50.834;4.718;2022-11-02T04:31:33;3.40;;;1.10;;
13927;SDS011;7036;50.834;4.718;2022-11-02T04:34:01;3.45;;;1.70;;
13927;SDS011;7036;50.834;4.718;2022-11-02T04:36:30;2.28;;;1.10;;
13927;SDS011;7036;50.834;4.718;2022-11-02T04:38:57;3.75;;;1.20;;
13927;SDS011;7036;50.834;4.718;2022-11-02T04:41:25;3.65;;;1.50;;
13927;SDS011;7036;50.834;4.718;2022-11-02T04:44:11;2.80;;;1.57;;
13927;SDS011;7036;50.834;4.718;2022-11-02T04:46:35;4.13;;;1.50;;
13927;SDS011;7036;50.834;4.718;2022-11-02T04:49:03;2.35;;;1.35;;
13927;SDS011;7036;50.834;4.718;2022-11-02T04:51:31;6.22;;;1.45;;
13927;SDS011;7036;50.834;4.718;2022-11-02T04:53:59;3.22;;;1.58;;
13927;SDS011;7036;50.834;4.718;2022-11-02T04:56:28;5.32;;;2.10;;
13927;SDS011;7036;50.834;4.718;2022-11-02T04:58:55;4.27;;;1.80;;
13927;SDS011;7036;50.834;4.718;2022-11-02T05:01:23;2.45;;;1.38;;
13927;SDS011;7036;50.834;4.718;2022-11-02T05:03:51;3.17;;;1.30;;
13927;SDS011;7036;50.834;4.718;2022-11-02T05:06:18;2.70;;;1.42;;
13927;SDS011;7036;50.834;4.718;2022-11-02T05:08:45;5.35;;;1.63;;
13927;SDS011;7036;50.834;4.718;2022-11-02T05:11:13;3.47;;;1.70;;
13927;SDS011;7036;50.834;4.718;2022-11-02T05:13:41;3.70;;;1.70;;
13927;SDS011;7036;50.834;4.718;2022-11-02T05:16:11;4.57;;;1.73;;
13927;SDS011;7036;50.834;4.718;2022-11-02T05:18:37;5.07;;;1.77;;
13927;SDS011;7036;50.834;4.718;2022-11-02T05:21:05;3.40;;;1.60;;
13927;SDS011;7036;50.834;4.718;2022-11-02T05:23:32;6.43;;;1.67;;
13927;SDS011;7036;50.834;4.718;2022-11-02T05:26:01;4.57;;;1.60;;
13927;SDS011;7036;50.834;4.718;2022-11-02T05:28:29;6.15;;;2.03;;
13927;SDS011;7036;50.834;4.718;2022-11-02T05:30:59;5.87;;;1.67;;
13927;SDS011;7036;50.834;4.718;2022-11-02T05:33:26;3.47;;;1.57;;
13927;SDS011;7036;50.834;4.718;2022-11-02T05:35:53;4.30;;;1.95;;
13927;SDS011;7036;50.834;4.718;2022-11-02T05:38:20;4.07;;;1.60;;
13927;SDS011;7036;50.834;4.718;2022-11-02T05:40:52;4.38;;;1.90;;
13927;SDS011;7036;50.834;4.718;2022-11-02T05:43:21;4.67;;;1.77;;
13927;SDS011;7036;50.834;4.718;2022-11-02T05:46:06;4.25;;;1.45;;
13927;SDS011;7036;50.834;4.718;2022-11-02T05:48:18;4.17;;;2.10;;
13927;SDS011;7036;50.834;4.718;2022-11-02T05:50:45;4.20;;;2.10;;
13927;SDS011;7036;50.834;4.718;2022-11-02T05:53:13;4.05;;;1.42;;
13927;SDS011;7036;50.834;4.718;2022-11-02T05:55:41;8.05;;;1.95;;
13927;SDS011;7036;50.834;4.718;2022-11-02T05:58:09;5.93;;;2.03;;
13927;SDS011;7036;50.834;4.718;2022-11-02T06:00:37;5.53;;;1.98;;
13927;SDS011;7036;50.834;4.718;2022-11-02T06:03:05;6.35;;;2.22;;
13927;SDS011;7036;50.834;4.718;2022-11-02T06:05:33;5.40;;;2.10;;
13927;SDS011;7036;50.834;4.718;2022-11-02T06:08:01;3.35;;;1.88;;
13927;SDS011;7036;50.834;4.718;2022-11-02T06:10:29;4.93;;;1.70;;
13927;SDS011;7036;50.834;4.718;2022-11-02T06:12:56;3.88;;;1.80;;
13927;SDS011;7036;50.834;4.718;2022-11-02T06:15:24;4.80;;;2.13;;
13927;SDS011;7036;50.834;4.718;2022-11-02T06:17:51;4.60;;;2.20;;
13927;SDS011;7036;50.834;4.718;2022-11-02T06:20:18;4.18;;;1.98;;
13927;SDS011;7036;50.834;4.718;2022-11-02T06:22:46;5.22;;;2.00;;
13927;SDS011;7036;50.834;4.718;2022-11-02T06:25:14;5.93;;;2.20;;
13927;SDS011;7036;50.834;4.718;2022-11-02T06:27:50;3.47;;;1.70;;
13927;SDS011;7036;50.834;4.718;2022-11-02T06:30:16;4.53;;;2.20;;
13927;SDS011;7036;50.834;4.718;2022-11-02T06:32:48;6.95;;;2.97;;
13927;SDS011;7036;50.834;4.718;2022-11-02T06:35:14;7.50;;;1.90;;
13927;SDS011;7036;50.834;4.718;2022-11-02T06:37:41;12.98;;;2.15;;
13927;SDS011;7036;50.834;4.718;2022-11-02T06:40:08;6.03;;;2.15;;
13927;SDS011;7036;50.834;4.718;2022-11-02T06:42:36;2.88;;;1.45;;
13927;SDS011;7036;50.834;4.718;2022-11-02T06:45:03;5.68;;;2.13;;
13927;SDS011;7036;50.834;4.718;2022-11-02T06:47:31;4.63;;;2.15;;
13927;SDS011;7036;50.834;4.718;2022-11-02T06:49:59;5.20;;;2.67;;
13927;SDS011;7036;50.834;4.718;2022-11-02T06:52:26;5.57;;;2.50;;
13927;SDS011;7036;50.834;4.718;2022-11-02T06:54:54;5.43;;;2.28;;
13927;SDS011;7036;50.834;4.718;2022-11-02T06:57:22;7.47;;;2.33;;
13927;SDS011;7036;50.834;4.718;2022-11-02T06:59:50;5.70;;;1.95;;
13927;SDS011;7036;50.834;4.718;2022-11-02T07:02:18;4.78;;;2.17;;
13927;SDS011;7036;50.834;4.718;2022-11-02T07:04:46;5.07;;;1.90;;
13927;SDS011;7036;50.834;4.718;2022-11-02T07:07:14;5.82;;;2.45;;
13927;SDS011;7036;50.834;4.718;2022-11-02T07:09:42;8.07;;;2.42;;
13927;SDS011;7036;50.834;4.718;2022-11-02T07:12:10;4.68;;;2.25;;
13927;SDS011;7036;50.834;4.718;2022-11-02T07:14:38;6.30;;;2.42;;
13927;SDS011;7036;50.834;4.718;2022-11-02T07:17:06;4.85;;;2.60;;
13927;SDS011;7036;50.834;4.718;2022-11-02T07:19:33;5.72;;;2.03;;
13927;SDS011;7036;50.834;4.718;2022-11-02T07:22:01;6.50;;;2.10;;
13927;SDS011;7036;50.834;4.718;2022-11-02T07:24:28;5.75;;;2.15;;
13927;SDS011;7036;50.834;4.718;2022-11-02T07:26:56;9.23;;;2.08;;
13927;SDS011;7036;50.834;4.718;2022-11-02T07:29:23;10.03;;;2.90;;
13927;SDS011;7036;50.834;4.718;2022-11-02T07:31:51;6.07;;;2.47;;
13927;SDS011;7036;50.834;4.718;2022-11-02T07:34:19;9.05;;;3.05;;
13927;SDS011;7036;50.834;4.718;2022-11-02T07:36:47;8.02;;;2.40;;
13927;SDS011;7036;50.834;4.718;2022-11-02T07:39:15;2.75;;;1.50;;
13927;SDS011;7036;50.834;4.718;2022-11-02T07:41:42;6.20;;;2.10;;
13927;SDS011;7036;50.834;4.718;2022-11-02T07:44:09;5.80;;;2.00;;
13927;SDS011;7036;50.834;4.718;2022-11-02T07:46:37;15.68;;;3.65;;
13927;SDS011;7036;50.834;4.718;2022-11-02T07:49:05;11.18;;;3.70;;
13927;SDS011;7036;50.834;4.718;2022-11-02T07:51:32;30.90;;;4.88;;
13927;SDS011;7036;50.834;4.718;2022-11-02T07:53:59;27.45;;;6.70;;
13927;SDS011;7036;50.834;4.718;2022-11-02T07:56:26;27.70;;;5.75;;
13927;SDS011;7036;50.834;4.718;2022-11-02T07:58:54;32.85;;;5.57;;
13927;SDS011;7036;50.834;4.718;2022-11-02T08:01:22;30.58;;;6.85;;
13927;SDS011;7036;50.834;4.718;2022-11-02T08:03:49;27.88;;;6.30;;
13927;SDS011;7036;50.834;4.718;2022-11-02T08:06:17;32.58;;;5.30;;
13927;SDS011;7036;50.834;4.718;2022-11-02T08:08:44;33.90;;;5.88;;
13927;SDS011;7036;50.834;4.718;2022-11-02T08:11:12;29.83;;;6.32;;
13927;SDS011;7036;50.834;4.718;2022-11-02T08:13:39;33.90;;;6.30;;
13927;SDS011;7036;50.834;4.718;2022-11-02T08:16:07;24.58;;;5.53;;
13927;SDS011;7036;50.834;4.718;2022-11-02T08:18:35;32.55;;;7.68;;
13927;SDS011;7036;50.834;4.718;2022-11-02T08:21:03;21.27;;;4.47;;
13927;SDS011;7036;50.834;4.718;2022-11-02T08:23:30;21.60;;;5.85;;
13927;SDS011;7036;50.834;4.718;2022-11-02T08:25:58;24.20;;;4.78;;
13927;SDS011;7036;50.834;4.718;2022-11-02T08:28:27;31.35;;;6.15;;
13927;SDS011;7036;50.834;4.718;2022-11-02T08:30:54;32.35;;;6.10;;
13927;SDS011;7036;50.834;4.718;2022-11-02T08:33:21;25.00;;;6.18;;
13927;SDS011;7036;50.834;4.718;2022-11-02T08:35:49;28.92;;;5.50;;
13927;SDS011;7036;50.834;4.718;2022-11-02T08:38:16;40.42;;;6.50;;
13927;SDS011;7036;50.834;4.718;2022-11-02T08:40:44;29.50;;;5.57;;
13927;SDS011;7036;50.834;4.718;2022-11-02T08:43:12;27.85;;;5.68;;
13927;SDS011;7036;50.834;4.718;2022-11-02T08:45:39;27.83;;;6.93;;
13927;SDS011;7036;50.834;4.718;2022-11-02T08:48:06;25.95;;;6.00;;
13927;SDS011;7036;50.834;4.718;2022-11-02T08:50:34;18.10;;;4.80;;
13927;SDS011;7036;50.834;4.718;2022-11-02T08:53:02;14.55;;;4.57;;
13927;SDS011;7036;50.834;4.718;2022-11-02T08:55:30;14.82;;;4.28;;
13927;SDS011;7036;50.834;4.718;2022-11-02T08:57:59;14.18;;;4.65;;
13927;SDS011;7036;50.834;4.718;2022-11-02T09:00:28;22.92;;;5.38;;
13927;SDS011;7036;50.834;4.718;2022-11-02T09:03:02;17.58;;;4.50;;
13927;SDS011;7036;50.834;4.718;2022-11-02T09:05:30;28.77;;;6.50;;
13927;SDS011;7036;50.834;4.718;2022-11-02T09:07:58;34.35;;;7.07;;
13927;SDS011;7036;50.834;4.718;2022-11-02T09:10:26;35.83;;;6.80;;
13927;SDS011;7036;50.834;4.718;2022-11-02T09:12:53;29.63;;;6.80;;
13927;SDS011;7036;50.834;4.718;2022-11-02T09:15:20;33.73;;;6.57;;
13927;SDS011;7036;50.834;4.718;2022-11-02T09:17:47;37.08;;;6.45;;
13927;SDS011;7036;50.834;4.718;2022-11-02T09:20:17;20.15;;;5.40;;
13927;SDS011;7036;50.834;4.718;2022-11-02T09:22:43;24.43;;;5.63;;
13927;SDS011;7036;50.834;4.718;2022-11-02T09:25:11;26.77;;;5.97;;
13927;SDS011;7036;50.834;4.718;2022-11-02T09:27:39;20.77;;;5.28;;
13927;SDS011;7036;50.834;4.718;2022-11-02T09:30:06;22.77;;;5.50;;
13927;SDS011;7036;50.834;4.718;2022-11-02T09:32:34;22.10;;;4.60;;
13927;SDS011;7036;50.834;4.718;2022-11-02T09:35:02;14.68;;;4.25;;
13927;SDS011;7036;50.834;4.718;2022-11-02T09:37:29;12.30;;;4.28;;
13927;SDS011;7036;50.834;4.718;2022-11-02T09:39:57;17.05;;;3.53;;
13927;SDS011;7036;50.834;4.718;2022-11-02T09:44:58;14.03;;;4.23;;
13927;SDS011;7036;50.834;4.718;2022-11-02T09:47:24;29.52;;;5.55;;
13927;SDS011;7036;50.834;4.718;2022-11-02T09:49:52;14.60;;;3.78;;
13927;SDS011;7036;50.834;4.718;2022-11-02T09:52:23;17.10;;;3.75;;
13927;SDS011;7036;50.834;4.718;2022-11-02T09:54:48;13.93;;;4.53;;
13927;SDS011;7036;50.834;4.718;2022-11-02T09:57:25;34.67;;;6.50;;
13927;SDS011;7036;50.834;4.718;2022-11-02T09:59:53;38.33;;;6.53;;
13927;SDS011;7036;50.834;4.718;2022-11-02T10:02:37;18.75;;;4.75;;
13927;SDS011;7036;50.834;4.718;2022-11-02T10:05:27;19.87;;;4.53;;
13927;SDS011;7036;50.834;4.718;2022-11-02T10:10:36;19.03;;;5.20;;
13927;SDS011;7036;50.834;4.718;2022-11-02T10:16:18;14.13;;;5.20;;
13927;SDS011;7036;50.834;4.718;2022-11-02T10:18:43;14.03;;;5.43;;
13927;SDS011;7036;50.834;4.718;2022-11-02T10:21:14;20.85;;;6.28;;
13927;SDS011;7036;50.834;4.718;2022-11-02T10:23:40;19.00;;;6.03;;
13927;SDS011;7036;50.834;4.718;2022-11-02T10:26:17;19.65;;;6.10;;
13927;SDS011;7036;50.834;4.718;2022-11-02T10:28:49;17.23;;;5.63;;
13927;SDS011;7036;50.834;4.718;2022-11-02T10:31:20;17.43;;;5.50;;
13927;SDS011;7036;50.834;4.718;2022-11-02T10:33:54;17.27;;;5.37;;
13927;SDS011;7036;50.834;4.718;2022-11-02T10:36:32;17.63;;;6.55;;
13927;SDS011;7036;50.834;4.718;2022-11-02T10:38:53;13.80;;;4.47;;
13927;SDS011;7036;50.834;4.718;2022-11-02T10:41:38;18.83;;;5.20;;
13927;SDS011;7036;50.834;4.718;2022-11-02T10:44:06;13.55;;;5.15;;
13927;SDS011;7036;50.834;4.718;2022-11-02T10:52:12;13.40;;;4.67;;
13927;SDS011;7036;50.834;4.718;2022-11-02T10:54:38;18.07;;;5.73;;
13927;SDS011;7036;50.834;4.718;2022-11-02T10:57:10;18.58;;;4.53;;
13927;SDS011;7036;50.834;4.718;2022-11-02T10:59:37;12.60;;;4.43;;
13927;SDS011;7036;50.834;4.718;2022-11-02T11:02:09;14.97;;;4.40;;
13927;SDS011;7036;50.834;4.718;2022-11-02T11:04:37;11.03;;;4.40;;
13927;SDS011;7036;50.834;4.718;2022-11-02T11:07:15;11.30;;;3.90;;
13927;SDS011;7036;50.834;4.718;2022-11-02T11:09:47;21.33;;;5.33;;
13927;SDS011;7036;50.834;4.718;2022-11-02T11:12:31;20.87;;;5.60;;
13927;SDS011;7036;50.834;4.718;2022-11-02T11:14:58;10.40;;;4.00;;
13927;SDS011;7036;50.834;4.718;2022-11-02T11:17:26;14.82;;;4.30;;
13927;SDS011;7036;50.834;4.718;2022-11-02T11:19:55;12.32;;;4.28;;
13927;SDS011;7036;50.834;4.718;2022-11-02T11:22:32;21.93;;;6.03;;
13927;SDS011;7036;50.834;4.718;2022-11-02T11:25:20;36.47;;;7.40;;
13927;SDS011;7036;50.834;4.718;2022-11-02T11:27:58;23.33;;;4.97;;
13927;SDS011;7036;50.834;4.718;2022-11-02T11:30:28;24.20;;;5.57;;
13927;SDS011;7036;50.834;4.718;2022-11-02T11:32:57;16.60;;;5.10;;
13927;SDS011;7036;50.834;4.718;2022-11-02T11:35:31;17.70;;;4.20;;
13927;SDS011;7036;50.834;4.718;2022-11-02T11:37:58;54.27;;;8.93;;
13927;SDS011;7036;50.834;4.718;2022-11-02T11:40:24;35.35;;;7.07;;
13927;SDS011;7036;50.834;4.718;2022-11-02T11:42:52;31.00;;;8.18;;
13927;SDS011;7036;50.834;4.718;2022-11-02T11:45:30;25.35;;;6.53;;
13927;SDS011;7036;50.834;4.718;2022-11-02T11:47:58;27.90;;;7.20;;
13927;SDS011;7036;50.834;4.718;2022-11-02T11:50:20;25.53;;;7.30;;
13927;SDS011;7036;50.834;4.718;2022-11-02T11:52:47;29.10;;;6.37;;
13927;SDS011;7036;50.834;4.718;2022-11-02T11:55:25;21.27;;;5.93;;
13927;SDS011;7036;50.834;4.718;2022-11-02T11:58:03;28.80;;;5.80;;
13927;SDS011;7036;50.834;4.718;2022-11-02T12:00:32;29.33;;;6.10;;
13927;SDS011;7036;50.834;4.718;2022-11-02T12:03:01;26.58;;;6.32;;
13927;SDS011;7036;50.834;4.718;2022-11-02T12:05:28;16.38;;;5.40;;
13927;SDS011;7036;50.834;4.718;2022-11-02T12:10:37;20.63;;;4.87;;
13927;SDS011;7036;50.834;4.718;2022-11-02T12:13:38;25.47;;;6.00;;
13927;SDS011;7036;50.834;4.718;2022-11-02T12:16:09;21.33;;;6.43;;
13927;SDS011;7036;50.834;4.718;2022-11-02T12:18:35;23.03;;;6.20;;
13927;SDS011;7036;50.834;4.718;2022-11-02T12:29:23;24.30;;;5.90;;
13927;SDS011;7036;50.834;4.718;2022-11-02T12:32:07;20.20;;;5.90;;
13927;SDS011;7036;50.834;4.718;2022-11-02T12:34:36;18.03;;;4.90;;
13927;SDS011;7036;50.834;4.718;2022-11-02T12:37:13;20.90;;;5.23;;
13927;SDS011;7036;50.834;4.718;2022-11-02T12:42:27;24.87;;;5.90;;
13927;SDS011;7036;50.834;4.718;2022-11-02T12:50:23;18.17;;;6.20;;
13927;SDS011;7036;50.834;4.718;2022-11-02T12:55:38;39.87;;;7.47;;
13927;SDS011;7036;50.834;4.718;2022-11-02T12:58:22;36.33;;;7.47;;
13927;SDS011;7036;50.834;4.718;2022-11-02T13:00:35;29.43;;;7.07;;
13927;SDS011;7036;50.834;4.718;2022-11-02T13:03:12;22.63;;;6.03;;
13927;SDS011;7036;50.834;4.718;2022-11-02T13:05:34;25.37;;;6.70;;
13927;SDS011;7036;50.834;4.718;2022-11-02T13:08:03;24.55;;;5.38;;
13927;SDS011;7036;50.834;4.718;2022-11-02T13:10:43;19.43;;;6.33;;
13927;SDS011;7036;50.834;4.718;2022-11-02T13:13:12;30.97;;;5.83;;
13927;SDS011;7036;50.834;4.718;2022-11-02T13:15:37;30.80;;;5.72;;
13927;SDS011;7036;50.834;4.718;2022-11-02T13:18:15;36.58;;;6.60;;
13927;SDS011;7036;50.834;4.718;2022-11-02T13:20:35;30.20;;;7.10;;
13927;SDS011;7036;50.834;4.718;2022-11-02T13:23:01;30.90;;;6.57;;
13927;SDS011;7036;50.834;4.718;2022-11-02T13:25:49;27.10;;;7.03;;
13927;SDS011;7036;50.834;4.718;2022-11-02T13:28:23;41.50;;;7.27;;
13927;SDS011;7036;50.834;4.718;2022-11-02T13:30:45;18.73;;;5.80;;
13927;SDS011;7036;50.834;4.718;2022-11-02T13:33:22;22.73;;;4.78;;
13927;SDS011;7036;50.834;4.718;2022-11-02T13:35:42;27.80;;;5.63;;
13927;SDS011;7036;50.834;4.718;2022-11-02T13:38:29;17.20;;;5.00;;
13927;SDS011;7036;50.834;4.718;2022-11-02T13:43:37;14.67;;;3.93;;
13927;SDS011;7036;50.834;4.718;2022-11-02T13:49:11;16.83;;;4.07;;
13927;SDS011;7036;50.834;4.718;2022-11-02T13:51:48;11.67;;;3.60;;
13927;SDS011;7036;50.834;4.718;2022-11-02T13:54:18;15.57;;;3.80;;
13927;SDS011;7036;50.834;4.718;2022-11-02T13:56:46;7.93;;;3.23;;
13927;SDS011;7036;50.834;4.718;2022-11-02T13:59:20;27.20;;;8.50;;
13927;SDS011;7036;50.834;4.718;2022-11-02T14:01:49;14.90;;;6.77;;
13927;SDS011;7036;50.834;4.718;2022-11-02T14:04:16;22.13;;;8.27;;
13927;SDS011;7036;50.834;4.718;2022-11-02T14:06:50;35.60;;;12.57;;
13927;SDS011;7036;50.834;4.718;2022-11-02T14:09:38;31.03;;;13.23;;
13927;SDS011;7036;50.834;4.718;2022-11-02T14:11:49;27.97;;;11.43;;
13927;SDS011;7036;50.834;4.718;2022-11-02T14:14:18;34.50;;;11.32;;
13927;SDS011;7036;50.834;4.718;2022-11-02T14:16:45;25.52;;;10.90;;
13927;SDS011;7036;50.834;4.718;2022-11-02T14:27:00;30.20;;;11.57;;
13927;SDS011;7036;50.834;4.718;2022-11-02T14:29:37;32.25;;;10.55;;
13927;SDS011;7036;50.834;4.718;2022-11-02T14:47:59;22.60;;;9.50;;
13927;SDS011;7036;50.834;4.718;2022-11-02T14:50:26;21.08;;;8.90;;
13927;SDS011;7036;50.834;4.718;2022-11-02T14:52:55;18.33;;;8.93;;
13927;SDS011;7036;50.834;4.718;2022-11-02T14:55:33;19.73;;;8.50;;
13927;SDS011;7036;50.834;4.718;2022-11-02T14:58:05;20.93;;;8.10;;
13927;SDS011;7036;50.834;4.718;2022-11-02T15:00:51;15.97;;;8.33;;
13927;SDS011;7036;50.834;4.718;2022-11-02T15:03:05;16.13;;;7.53;;
13927;SDS011;7036;50.834;4.718;2022-11-02T15:08:15;13.63;;;8.00;;
13927;SDS011;7036;50.834;4.718;2022-11-02T15:10:36;12.43;;;7.07;;
13927;SDS011;7036;50.834;4.718;2022-11-02T15:26:34;16.30;;;7.13;;
13927;SDS011;7036;50.834;4.718;2022-11-02T15:28:48;21.00;;;7.33;;
13927;SDS011;7036;50.834;4.718;2022-11-02T15:31:16;19.00;;;7.28;;
13927;SDS011;7036;50.834;4.718;2022-11-02T15:33:45;14.60;;;6.87;;
13927;SDS011;7036;50.834;4.718;2022-11-02T15:36:45;15.50;;;6.15;;
13927;SDS011;7036;50.834;4.718;2022-11-02T15:38:48;9.87;;;5.37;;
13927;SDS011;7036;50.834;4.718;2022-11-02T15:47:20;12.87;;;5.33;;
13927;SDS011;7036;50.834;4.718;2022-11-02T15:49:59;9.97;;;5.00;;
13927;SDS011;7036;50.834;4.718;2022-11-02T15:55:38;11.77;;;4.97;;
13927;SDS011;7036;50.834;4.718;2022-11-02T16:01:02;10.33;;;5.33;;
13927;SDS011;7036;50.834;4.718;2022-11-02T16:03:11;12.10;;;4.63;;
13927;SDS011;7036;50.834;4.718;2022-11-02T16:05:42;11.50;;;5.38;;
13927;SDS011;7036;50.834;4.718;2022-11-02T16:08:53;13.03;;;4.90;;
13927;SDS011;7036;50.834;4.718;2022-11-02T16:10:46;7.67;;;4.60;;
13927;SDS011;7036;50.834;4.718;2022-11-02T16:13:18;11.27;;;4.57;;
13927;SDS011;7036;50.834;4.718;2022-11-02T16:15:47;10.70;;;4.50;;
13927;SDS011;7036;50.834;4.718;2022-11-02T16:18:23;9.40;;;4.33;;
13927;SDS011;7036;50.834;4.718;2022-11-02T16:20:49;11.83;;;4.37;;
13927;SDS011;7036;50.834;4.718;2022-11-02T16:23:20;13.73;;;5.10;;
13927;SDS011;7036;50.834;4.718;2022-11-02T16:25:46;16.33;;;5.60;;
13927;SDS011;7036;50.834;4.718;2022-11-02T16:28:21;12.30;;;4.40;;
13927;SDS011;7036;50.834;4.718;2022-11-02T16:33:51;28.37;;;6.93;;
13927;SDS011;7036;50.834;4.718;2022-11-02T16:36:34;15.83;;;5.57;;
13927;SDS011;7036;50.834;4.718;2022-11-02T16:41:30;25.73;;;6.67;;
13927;SDS011;7036;50.834;4.718;2022-11-02T16:43:57;19.08;;;5.28;;
13927;SDS011;7036;50.834;4.718;2022-11-02T16:46:28;22.20;;;5.65;;
13927;SDS011;7036;50.834;4.718;2022-11-02T16:49:10;22.93;;;5.17;;
13927;SDS011;7036;50.834;4.718;2022-11-02T16:51:32;11.10;;;4.40;;
13927;SDS011;7036;50.834;4.718;2022-11-02T16:56:44;16.10;;;4.53;;
13927;SDS011;7036;50.834;4.718;2022-11-02T16:59:11;10.55;;;4.03;;
13927;SDS011;7036;50.834;4.718;2022-11-02T17:01:37;16.00;;;4.93;;
13927;SDS011;7036;50.834;4.718;2022-11-02T17:04:14;14.05;;;4.75;;
13927;SDS011;7036;50.834;4.718;2022-11-02T17:06:47;13.90;;;4.30;;
13927;SDS011;7036;50.834;4.718;2022-11-02T17:09:21;9.38;;;3.90;;
13927;SDS011;7036;50.834;4.718;2022-11-02T17:11:47;9.93;;;4.53;;
13927;SDS011;7036;50.834;4.718;2022-11-02T17:14:13;13.10;;;4.80;;